Ana Sayfa
METAR-TAF:

METAR-TAF

Havaalanları :

Lüksemburg-Findel Havalimanı

Lüksemburg, Lüksemburg

Enlem: 49-37N, Boylam: 006-13E, yükseklik: 376 m

Güncel hava durumu gözlemi

Rapor saat 13:50 UTC de 23 dakika önce yapıldı.
Rüzgar kuzeydoğudan 7 kt
Sıcaklık 18°C
Nem 59%
Basınç 1022 hPa
Görüş mesafesi 10 km veya daha fazla
1500 m altında bulut yok ve kümülonimbus yok

METAR: ELLX 191350Z 04007KT CAVOK 18/10 Q1022 NOSIG

Saat: 16:13 (14:13 UTC)

Tahmin

Rapor saat 11:00 UTC de 3 saat ve 13 dakika önce yapıldı.
Ayın 19'si saat 12 UTC'den ayın 20'si saat 18 UTC'ye kadar geçerli Tahmin
Rüzgar kuzeydoğudan 9 kt
Görüş mesafesi 10 km veya daha fazla
1500 m altında bulut yok ve kümülonimbus yok
Olasılık 40% :
Geçici
ayın 20'si saat 00 UTC'den ayın 20'si saat 08 UTC'ye kadar
Görüş mesafesi: 2000 m
Pus

TAF: ELLX 191100Z 1912/2018 04009KT CAVOK PROB40 TEMPO 2000/2008 2000 BR

4.000'den fazla havaalanı için hava durumu gözlemleri ve tahminleri (METAR ve TAF raporları).

Kullanılabilir istasyonlar harita üzerinde sarı ve kırmızı noktalarla gösterilir.

İstasyonun adını görmek için fareyi noktanın üzerinde gezdirin.

Sonrasında hava gözlem ve tahminlerini görmek için tıklayın.

Haritayı değiştirmek için: yaklaştırmak için siyah artı işaretli yeşil düğmeye ve uzaklaştırmak için de eksi işaretli düğmeye hızla tıklayın; bitişik haritalar için yeşil okları kullanın.


METAR-TAF: